createdAt,value
2024-03-12T00:00:16.416Z,51.02
2024-03-12T00:03:05.410Z,50.88
2024-03-12T00:05:32.248Z,51.03
2024-03-12T00:07:59.338Z,51.08
2024-03-12T00:10:26.188Z,51.30
2024-03-12T00:12:54.225Z,50.91
2024-03-12T00:15:25.532Z,51.13
2024-03-12T00:17:55.115Z,50.88
2024-03-12T00:20:31.040Z,51.23
2024-03-12T00:22:59.920Z,51.22
2024-03-12T00:25:27.011Z,51.32
2024-03-12T00:27:56.399Z,51.11
2024-03-12T00:30:26.484Z,51.22
2024-03-12T00:32:55.465Z,50.96
2024-03-12T00:35:25.410Z,50.82
2024-03-12T00:37:53.035Z,51.02
2024-03-12T00:40:23.375Z,50.91
2024-03-12T00:42:51.748Z,51.08
2024-03-12T00:45:26.809Z,51.24
2024-03-12T00:47:54.972Z,50.86
2024-03-12T00:50:24.299Z,51.07
2024-03-12T00:52:54.361Z,50.83
2024-03-12T00:55:21.947Z,50.80
2024-03-12T00:57:49.755Z,51.24
2024-03-12T01:00:26.611Z,51.17
2024-03-12T01:02:59.688Z,51.07
2024-03-12T01:05:28.230Z,51.02
2024-03-12T01:07:55.881Z,50.94
2024-03-12T01:10:22.864Z,50.99
2024-03-12T01:12:53.217Z,51.04
2024-03-12T01:15:20.512Z,50.81
2024-03-12T01:17:49.220Z,51.17
2024-03-12T01:20:20.401Z,50.85
2024-03-12T01:22:55.344Z,50.96
2024-03-12T01:25:23.066Z,50.97
2024-03-12T01:27:50.895Z,50.73
2024-03-12T01:30:18.097Z,50.75
2024-03-12T01:32:48.799Z,50.51
2024-03-12T01:35:15.743Z,50.70
2024-03-12T01:37:44.574Z,50.68
2024-03-12T01:40:26.833Z,50.83
2024-03-12T01:42:55.522Z,50.83
2024-03-12T01:45:23.894Z,50.96
2024-03-12T01:47:51.963Z,50.80
2024-03-12T01:50:19.535Z,50.86
2024-03-12T01:52:47.586Z,50.69
2024-03-12T01:55:15.038Z,50.73
2024-03-12T01:57:42.972Z,50.58
2024-03-12T02:00:14.733Z,50.81
2024-03-12T02:02:46.309Z,50.59
2024-03-12T02:05:14.127Z,50.42
2024-03-12T02:07:48.442Z,50.73
2024-03-12T02:10:15.411Z,50.92
2024-03-12T02:12:45.362Z,50.92
2024-03-12T02:15:19.024Z,50.76
2024-03-12T02:17:46.901Z,50.82
2024-03-12T02:20:14.193Z,50.73
2024-03-12T02:22:41.597Z,50.72
2024-03-12T02:25:11.513Z,50.58
2024-03-12T02:27:41.853Z,50.67
2024-03-12T02:30:09.914Z,50.69
2024-03-12T02:32:37.890Z,50.76
2024-03-12T02:35:05.878Z,50.68
2024-03-12T02:37:33.339Z,50.58
2024-03-12T02:40:00.278Z,50.83
2024-03-12T02:42:29.503Z,50.57
2024-03-12T02:44:57.947Z,50.82
2024-03-12T02:47:26.028Z,50.77
2024-03-12T02:49:52.825Z,50.86
2024-03-12T02:52:21.607Z,50.88
2024-03-12T02:54:48.600Z,50.97
2024-03-12T02:57:15.992Z,50.41
2024-03-12T02:59:43.156Z,50.83
2024-03-12T03:02:10.717Z,50.78
2024-03-12T03:04:38.129Z,50.92
2024-03-12T03:07:05.692Z,50.65
2024-03-12T03:09:32.737Z,50.96
2024-03-12T03:12:00.944Z,50.74
2024-03-12T03:14:27.746Z,50.97
2024-03-12T03:16:55.702Z,50.78
2024-03-12T03:19:24.242Z,50.81
2024-03-12T03:21:51.508Z,50.96
2024-03-12T03:24:18.388Z,50.95
2024-03-12T03:26:45.494Z,50.91
2024-03-12T03:29:12.702Z,50.66
2024-03-12T03:31:42.900Z,50.91
2024-03-12T03:34:12.326Z,50.80
2024-03-12T03:36:41.029Z,50.95
2024-03-12T03:39:09.881Z,50.84
2024-03-12T03:41:37.220Z,50.45
2024-03-12T03:44:04.051Z,50.70
2024-03-12T03:46:31.126Z,50.62
2024-03-12T03:48:59.038Z,50.79
2024-03-12T03:51:27.124Z,50.76
2024-03-12T03:53:54.216Z,50.88
2024-03-12T03:56:22.941Z,50.37
2024-03-12T03:58:50.382Z,50.91
2024-03-12T04:01:17.800Z,50.77
2024-03-12T04:03:46.010Z,50.58
2024-03-12T04:06:13.495Z,50.71
2024-03-12T04:08:40.325Z,50.87
2024-03-12T04:11:07.484Z,50.75
2024-03-12T04:13:34.364Z,50.68
2024-03-12T04:16:01.628Z,51.05
2024-03-12T04:18:29.958Z,50.83
2024-03-12T04:20:57.503Z,50.61
2024-03-12T04:23:24.509Z,50.54
2024-03-12T04:25:52.285Z,50.77
2024-03-12T04:28:20.913Z,50.49
2024-03-12T04:30:50.137Z,50.88
2024-03-12T04:33:18.981Z,50.86
2024-03-12T04:35:46.514Z,50.64
2024-03-12T04:38:17.460Z,50.65
2024-03-12T04:40:48.234Z,50.72
2024-03-12T04:43:16.052Z,50.78
2024-03-12T04:45:43.272Z,50.70
2024-03-12T04:48:11.288Z,50.52
2024-03-12T04:50:39.042Z,50.71
2024-03-12T04:53:06.102Z,50.86
2024-03-12T04:55:38.087Z,50.84
2024-03-12T04:58:08.017Z,50.69
2024-03-12T05:00:35.282Z,50.74
2024-03-12T05:03:02.075Z,50.48
2024-03-12T05:05:29.254Z,50.70
2024-03-12T05:07:56.021Z,50.47
2024-03-12T05:10:23.236Z,50.67
2024-03-12T05:12:53.182Z,50.70
2024-03-12T05:15:21.586Z,50.62
2024-03-12T05:17:50.055Z,50.78
2024-03-12T05:20:18.700Z,50.60
2024-03-12T05:22:48.267Z,50.94
2024-03-12T05:25:25.537Z,50.65
2024-03-12T05:27:52.634Z,50.75
2024-03-12T05:30:22.141Z,50.78
2024-03-12T05:32:50.073Z,50.48
2024-03-12T05:35:24.418Z,50.70
2024-03-12T05:38:23.443Z,50.85
2024-03-12T05:41:16.309Z,50.91
2024-03-12T05:44:01.965Z,50.94
2024-03-12T05:46:48.366Z,50.94
2024-03-12T05:49:15.737Z,50.95
2024-03-12T05:51:43.455Z,50.61
2024-03-12T05:54:10.982Z,50.82
2024-03-12T05:56:39.176Z,50.86
2024-03-12T05:59:06.184Z,51.03
2024-03-12T06:01:33.749Z,50.68
2024-03-12T06:04:00.882Z,50.80
2024-03-12T06:06:28.183Z,50.94
2024-03-12T06:08:55.596Z,50.57
2024-03-12T06:11:23.908Z,50.72
2024-03-12T06:13:50.730Z,50.95
2024-03-12T06:16:20.113Z,50.77
2024-03-12T06:18:47.108Z,50.62
2024-03-12T06:21:14.247Z,50.70
2024-03-12T06:23:41.254Z,50.66
2024-03-12T06:26:08.431Z,50.79
2024-03-12T06:28:35.834Z,50.87
2024-03-12T06:31:05.519Z,50.54
2024-03-12T06:33:32.863Z,50.86
2024-03-12T06:36:00.015Z,50.77
2024-03-12T06:38:26.842Z,50.96
2024-03-12T06:40:54.170Z,51.01
2024-03-12T06:43:22.439Z,50.56
2024-03-12T06:45:50.846Z,50.71
2024-03-12T06:48:20.497Z,50.79
2024-03-12T06:50:47.803Z,50.95
2024-03-12T06:53:17.761Z,50.94
2024-03-12T06:55:47.346Z,50.60
2024-03-12T06:58:20.248Z,50.76
2024-03-12T07:00:49.582Z,50.49
2024-03-12T07:03:18.376Z,50.63
2024-03-12T07:05:48.652Z,50.72
2024-03-12T07:08:18.442Z,50.56
2024-03-12T07:10:46.893Z,50.85
2024-03-12T07:13:14.341Z,50.77
2024-03-12T07:15:42.925Z,50.70
2024-03-12T07:18:09.962Z,50.66
2024-03-12T07:20:37.208Z,50.88
2024-03-12T07:23:07.500Z,50.71
2024-03-12T07:25:35.081Z,50.69
2024-03-12T07:28:07.852Z,50.69
2024-03-12T07:30:36.055Z,50.68
2024-03-12T07:33:06.085Z,50.55
2024-03-12T07:35:35.354Z,50.68
2024-03-12T07:38:04.024Z,51.04
2024-03-12T07:40:31.794Z,50.66
2024-03-12T07:43:00.136Z,50.50
2024-03-12T07:45:28.258Z,50.71
2024-03-12T07:47:56.843Z,50.56
2024-03-12T07:50:24.084Z,50.69
2024-03-12T07:52:52.291Z,50.58
2024-03-12T07:55:19.592Z,50.71
2024-03-12T07:57:46.516Z,50.77
2024-03-12T08:00:17.975Z,50.72
2024-03-12T08:02:45.125Z,50.73
2024-03-12T08:05:13.588Z,50.84
2024-03-12T08:07:40.558Z,50.78
2024-03-12T08:10:10.543Z,50.72
2024-03-12T08:12:40.861Z,50.81
2024-03-12T08:15:11.279Z,50.67
2024-03-12T08:17:39.522Z,50.60
2024-03-12T08:20:11.753Z,50.70
2024-03-12T08:22:39.773Z,50.75
2024-03-12T08:25:10.826Z,50.62
2024-03-12T08:27:41.018Z,50.73
2024-03-12T08:30:09.486Z,50.53
2024-03-12T08:32:37.609Z,50.94
2024-03-12T08:35:05.123Z,50.62
2024-03-12T08:37:34.379Z,50.95
2024-03-12T08:40:03.842Z,50.76
2024-03-12T08:42:32.304Z,50.68
2024-03-12T08:44:59.994Z,50.61
2024-03-12T08:47:26.934Z,50.74
2024-03-12T08:49:54.168Z,50.84
2024-03-12T08:52:23.246Z,50.54
2024-03-12T08:54:50.404Z,50.59
2024-03-12T08:57:17.240Z,50.85
2024-03-12T08:59:44.464Z,50.46
2024-03-12T09:02:11.924Z,50.83
2024-03-12T09:04:39.854Z,50.60
2024-03-12T09:07:07.164Z,50.95
2024-03-12T09:09:34.505Z,50.85
2024-03-12T09:12:01.366Z,50.85
2024-03-12T09:14:28.583Z,50.67
2024-03-12T09:16:55.443Z,50.84
2024-03-12T09:19:26.192Z,50.66
2024-03-12T09:21:54.412Z,50.75
2024-03-12T09:24:21.675Z,50.68
2024-03-12T09:26:49.040Z,50.81
2024-03-12T09:29:16.204Z,51.06
2024-03-12T09:31:45.559Z,50.61
2024-03-12T09:34:13.585Z,50.81
2024-03-12T09:36:40.910Z,51.08
2024-03-12T09:39:12.211Z,51.04
2024-03-12T09:41:42.060Z,51.23
2024-03-12T09:44:12.122Z,51.10
2024-03-12T09:46:40.381Z,50.96
2024-03-12T09:49:08.815Z,51.05
2024-03-12T09:51:36.159Z,50.77
2024-03-12T09:54:05.211Z,51.15
2024-03-12T09:56:34.757Z,51.07
2024-03-12T09:59:03.996Z,51.13
2024-03-12T10:01:30.826Z,50.83
2024-03-12T10:03:58.440Z,50.90
2024-03-12T10:06:26.680Z,50.99
2024-03-12T10:08:58.438Z,51.01
2024-03-12T10:11:25.302Z,51.20
2024-03-12T10:14:00.016Z,51.08
2024-03-12T10:16:28.958Z,51.15
2024-03-12T10:19:12.613Z,51.08
2024-03-12T10:21:41.699Z,50.99
2024-03-12T10:24:24.223Z,51.09
2024-03-12T10:26:51.058Z,51.04
2024-03-12T10:29:22.170Z,51.25
2024-03-12T10:31:49.269Z,51.02
2024-03-12T10:34:21.450Z,50.96
2024-03-12T10:36:50.910Z,51.49
2024-03-12T10:39:30.833Z,51.40
2024-03-12T10:42:01.241Z,51.20
2024-03-12T10:44:29.991Z,51.01
2024-03-12T10:46:59.657Z,51.29
2024-03-12T10:49:27.925Z,51.25
2024-03-12T10:51:54.878Z,51.09
2024-03-12T10:54:25.206Z,51.27
2024-03-12T10:56:52.318Z,51.03
2024-03-12T10:59:19.445Z,51.09
2024-03-12T11:01:46.487Z,51.33
2024-03-12T11:04:14.851Z,51.33
2024-03-12T11:06:41.719Z,51.40
2024-03-12T11:09:12.784Z,51.28
2024-03-12T11:11:40.718Z,51.40
2024-03-12T11:14:09.019Z,51.20
2024-03-12T11:16:36.361Z,51.21
2024-03-12T11:19:24.806Z,51.34
2024-03-12T11:21:52.775Z,51.29
2024-03-12T11:24:27.208Z,51.21
2024-03-12T11:26:54.142Z,51.20
2024-03-12T11:29:43.395Z,51.02
2024-03-12T11:32:12.412Z,51.20
2024-03-12T11:34:41.405Z,51.25
2024-03-12T11:37:18.924Z,51.36
2024-03-12T11:39:46.211Z,51.25
2024-03-12T11:42:16.116Z,51.14
2024-03-12T11:44:56.625Z,51.26
2024-03-12T11:47:36.110Z,51.32
2024-03-12T11:50:05.175Z,51.41
2024-03-12T11:52:33.479Z,51.37
2024-03-12T11:55:01.077Z,51.45
2024-03-12T11:57:31.506Z,51.59
2024-03-12T11:59:59.080Z,51.28
2024-03-12T12:02:27.799Z,51.33
2024-03-12T12:04:56.057Z,51.39
2024-03-12T12:07:23.774Z,51.69
2024-03-12T12:09:51.938Z,51.29
2024-03-12T12:12:19.385Z,51.38
2024-03-12T12:14:48.827Z,51.37
2024-03-12T12:17:25.198Z,51.45
2024-03-12T12:20:22.566Z,51.59
2024-03-12T12:22:51.238Z,51.49
2024-03-12T12:25:22.850Z,51.52
2024-03-12T12:27:50.191Z,51.46
2024-03-12T12:30:18.719Z,51.59
2024-03-12T12:32:45.676Z,51.40
2024-03-12T12:35:13.217Z,51.47
2024-03-12T12:37:40.412Z,51.55
2024-03-12T12:40:10.310Z,51.77
2024-03-12T12:42:39.828Z,51.87
2024-03-12T12:45:09.865Z,51.83
2024-03-12T12:47:37.838Z,51.58
2024-03-12T12:50:06.165Z,51.51
2024-03-12T12:52:33.106Z,51.56
2024-03-12T12:55:00.674Z,51.65
2024-03-12T12:57:28.931Z,51.76
2024-03-12T12:59:57.171Z,51.80
2024-03-12T13:02:24.426Z,51.92
2024-03-12T13:05:03.840Z,51.51
2024-03-12T13:07:33.279Z,51.80
2024-03-12T13:10:19.467Z,51.98
2024-03-12T13:12:47.325Z,52.11
2024-03-12T13:15:35.602Z,51.72
2024-03-12T13:18:05.832Z,51.66
2024-03-12T13:20:34.361Z,51.96
2024-03-12T13:23:01.322Z,51.91
2024-03-12T13:25:28.537Z,51.73
2024-03-12T13:27:55.458Z,51.82
2024-03-12T13:30:22.756Z,52.24
2024-03-12T13:32:49.644Z,52.14
2024-03-12T13:35:16.804Z,51.88
2024-03-12T13:37:46.076Z,51.54
2024-03-12T13:40:16.086Z,51.90
2024-03-12T13:42:43.198Z,51.82
2024-03-12T13:45:10.873Z,51.68
2024-03-12T13:47:39.727Z,51.80
2024-03-12T13:50:08.332Z,51.89
2024-03-12T13:52:35.164Z,51.65
2024-03-12T13:55:02.325Z,51.97
2024-03-12T13:57:29.421Z,51.77
2024-03-12T13:59:56.508Z,52.03
2024-03-12T14:02:24.293Z,51.85
2024-03-12T14:04:52.827Z,51.88
2024-03-12T14:07:20.574Z,51.93
2024-03-12T14:09:47.992Z,52.04
2024-03-12T14:12:14.949Z,51.80
2024-03-12T14:14:42.881Z,51.65
2024-03-12T14:17:09.826Z,51.87
2024-03-12T14:19:37.030Z,51.91
2024-03-12T14:22:04.921Z,51.89
2024-03-12T14:24:32.150Z,51.92
2024-03-12T14:26:59.727Z,52.21
2024-03-12T14:29:27.944Z,52.27
2024-03-12T14:31:54.785Z,52.25
2024-03-12T14:34:21.932Z,51.98
2024-03-12T14:36:48.739Z,51.94
2024-03-12T14:39:16.230Z,52.19
2024-03-12T14:41:43.054Z,51.95
2024-03-12T14:44:10.253Z,52.17
2024-03-12T14:46:37.135Z,52.27
2024-03-12T14:49:05.710Z,52.01
2024-03-12T14:51:33.719Z,52.25
2024-03-12T14:54:00.883Z,52.22
2024-03-12T14:56:27.960Z,52.30
2024-03-12T14:58:55.173Z,52.53
2024-03-12T15:01:22.109Z,52.30
2024-03-12T15:03:49.428Z,52.37
2024-03-12T15:06:16.413Z,52.58
2024-03-12T15:08:43.592Z,52.48
2024-03-12T15:11:10.651Z,52.22
2024-03-12T15:13:38.103Z,52.10
2024-03-12T15:16:07.916Z,52.29
2024-03-12T15:18:36.237Z,52.32
2024-03-12T15:21:03.988Z,52.23
2024-03-12T15:23:31.634Z,52.38
2024-03-12T15:25:58.813Z,52.24
2024-03-12T15:28:25.980Z,52.25
2024-03-12T15:30:52.903Z,52.23
2024-03-12T15:33:20.180Z,52.19
2024-03-12T15:35:47.125Z,52.23
2024-03-12T15:38:14.298Z,52.16
2024-03-12T15:40:41.835Z,52.14
2024-03-12T15:43:10.478Z,52.25
2024-03-12T15:45:37.610Z,52.25
2024-03-12T15:48:09.007Z,52.21
2024-03-12T15:50:36.104Z,52.27
2024-03-12T15:53:03.270Z,52.50
2024-03-12T15:55:31.236Z,52.40
2024-03-12T15:57:59.809Z,52.60
2024-03-12T16:00:27.050Z,52.35
2024-03-12T16:02:55.446Z,52.61
2024-03-12T16:05:23.575Z,52.30
2024-03-12T16:07:52.576Z,52.27
2024-03-12T16:10:21.767Z,52.23
2024-03-12T16:12:49.148Z,52.61
2024-03-12T16:15:19.131Z,52.55
2024-03-12T16:17:46.343Z,52.45
2024-03-12T16:20:14.015Z,52.61
2024-03-12T16:22:42.244Z,52.27
2024-03-12T16:25:09.485Z,52.49
2024-03-12T16:27:36.841Z,52.48
2024-03-12T16:30:04.797Z,52.49
2024-03-12T16:32:33.762Z,52.36
2024-03-12T16:35:00.914Z,52.51
2024-03-12T16:37:28.612Z,52.61
2024-03-12T16:39:55.616Z,52.72
2024-03-12T16:42:22.966Z,52.63
2024-03-12T16:44:51.238Z,52.76
2024-03-12T16:47:18.562Z,52.65
2024-03-12T16:49:47.350Z,52.46
2024-03-12T16:52:15.482Z,52.60
2024-03-12T16:54:43.023Z,52.63
2024-03-12T16:57:10.990Z,52.62
2024-03-12T16:59:38.067Z,52.56
2024-03-12T17:02:09.431Z,52.60
2024-03-12T17:04:38.063Z,52.56
2024-03-12T17:07:09.589Z,52.57
2024-03-12T17:09:38.466Z,52.52
2024-03-12T17:12:06.477Z,52.28
2024-03-12T17:14:36.112Z,52.74
2024-03-12T17:17:08.316Z,52.76
2024-03-12T17:19:36.049Z,52.86
2024-03-12T17:22:03.973Z,52.62
2024-03-12T17:24:32.081Z,52.54
2024-03-12T17:26:59.554Z,52.68
2024-03-12T17:29:26.826Z,52.77
2024-03-12T17:31:55.011Z,52.69
2024-03-12T17:34:22.756Z,52.62
2024-03-12T17:36:49.958Z,52.71
2024-03-12T17:39:19.753Z,52.59
2024-03-12T17:41:47.799Z,52.63
2024-03-12T17:44:15.012Z,53.11
2024-03-12T17:46:46.548Z,52.73
2024-03-12T17:49:19.957Z,52.55
2024-03-12T17:51:47.829Z,52.58
2024-03-12T17:54:17.521Z,52.70
2024-03-12T17:56:48.482Z,52.79
2024-03-12T17:59:20.337Z,52.41
2024-03-12T18:01:48.587Z,52.96
2024-03-12T18:04:15.987Z,52.49
2024-03-12T18:06:43.894Z,52.70
2024-03-12T18:09:16.512Z,52.82
2024-03-12T18:11:44.081Z,52.98
2024-03-12T18:14:11.660Z,52.59
2024-03-12T18:16:39.442Z,52.86
2024-03-12T18:19:06.997Z,52.49
2024-03-12T18:21:34.481Z,52.63
2024-03-12T18:24:01.741Z,52.70
2024-03-12T18:26:29.020Z,52.91
2024-03-12T18:28:57.927Z,52.61
2024-03-12T18:31:25.500Z,52.84
2024-03-12T18:33:52.383Z,52.91
2024-03-12T18:36:19.501Z,52.94
2024-03-12T18:38:46.426Z,52.83
2024-03-12T18:41:15.213Z,52.73
2024-03-12T18:43:42.165Z,52.71
2024-03-12T18:46:09.609Z,52.70
2024-03-12T18:48:37.075Z,52.78
2024-03-12T18:51:06.009Z,52.80
2024-03-12T18:53:34.838Z,52.84
2024-03-12T18:56:04.002Z,52.89
2024-03-12T18:58:31.142Z,52.79
2024-03-12T19:00:59.266Z,52.82
2024-03-12T19:03:30.122Z,53.09
2024-03-12T19:06:02.125Z,52.69
2024-03-12T19:08:30.182Z,53.04
2024-03-12T19:10:57.469Z,52.84
2024-03-12T19:13:24.770Z,52.86
2024-03-12T19:15:52.243Z,52.95
2024-03-12T19:18:22.503Z,53.16
2024-03-12T19:20:50.623Z,52.97
2024-03-12T19:23:18.106Z,53.10
2024-03-12T19:25:45.271Z,52.94
2024-03-12T19:28:12.425Z,52.85
2024-03-12T19:30:40.198Z,52.99
2024-03-12T19:33:07.686Z,53.14
2024-03-12T19:35:35.322Z,52.63
2024-03-12T19:38:02.375Z,52.82
2024-03-12T19:40:29.833Z,53.05
2024-03-12T19:42:58.829Z,52.91
2024-03-12T19:45:28.937Z,52.70
2024-03-12T19:47:57.796Z,52.92
2024-03-12T19:50:28.622Z,53.49
2024-03-12T19:52:56.601Z,52.74
2024-03-12T19:55:31.266Z,52.84
2024-03-12T19:58:01.258Z,53.27
2024-03-12T20:00:36.041Z,52.76
2024-03-12T20:03:06.050Z,53.13
2024-03-12T20:05:34.002Z,53.05
2024-03-12T20:08:05.919Z,52.91
2024-03-12T20:10:33.810Z,52.71
2024-03-12T20:13:05.628Z,52.80
2024-03-12T20:15:33.711Z,52.89
2024-03-12T20:18:02.391Z,53.03
2024-03-12T20:20:29.902Z,52.89
2024-03-12T20:22:59.004Z,52.82
2024-03-12T20:25:27.422Z,52.93
2024-03-12T20:27:55.152Z,52.83
2024-03-12T20:30:28.450Z,52.86
2024-03-12T20:33:00.021Z,52.90
2024-03-12T20:35:33.106Z,52.76
2024-03-12T20:38:00.438Z,52.92
2024-03-12T20:40:28.955Z,52.86
2024-03-12T20:43:00.161Z,52.83
2024-03-12T20:45:27.862Z,52.86
2024-03-12T20:47:55.839Z,52.96
2024-03-12T20:50:23.181Z,52.58
2024-03-12T20:52:51.159Z,52.65
2024-03-12T20:55:19.513Z,52.60
2024-03-12T20:57:49.670Z,53.01
2024-03-12T21:00:29.457Z,52.99
2024-03-12T21:02:56.606Z,53.08
2024-03-12T21:05:23.845Z,52.95
2024-03-12T21:07:53.293Z,52.97
2024-03-12T21:10:20.772Z,52.88
2024-03-12T21:12:52.270Z,53.12
2024-03-12T21:15:20.013Z,52.91
2024-03-12T21:17:47.236Z,53.03
2024-03-12T21:20:19.568Z,53.19
2024-03-12T21:22:46.646Z,53.28
2024-03-12T21:25:13.859Z,52.85
2024-03-12T21:27:40.836Z,52.88
2024-03-12T21:30:13.689Z,52.83
2024-03-12T21:32:41.649Z,52.99
2024-03-12T21:35:09.315Z,52.89
2024-03-12T21:37:37.553Z,53.16
2024-03-12T21:40:05.739Z,53.17
2024-03-12T21:42:32.971Z,53.06
2024-03-12T21:45:00.199Z,53.05
2024-03-12T21:47:27.667Z,52.94
2024-03-12T21:49:56.298Z,53.19
2024-03-12T21:52:23.120Z,53.02
2024-03-12T21:54:52.421Z,53.01
2024-03-12T21:57:19.244Z,53.20
2024-03-12T21:59:48.283Z,53.20
2024-03-12T22:02:15.103Z,52.94
2024-03-12T22:04:42.176Z,52.86
2024-03-12T22:07:09.092Z,53.11
2024-03-12T22:09:36.705Z,52.97
2024-03-12T22:12:03.776Z,52.96
2024-03-12T22:14:30.946Z,53.04
2024-03-12T22:16:57.698Z,52.78
2024-03-12T22:19:24.855Z,52.94
2024-03-12T22:21:52.561Z,52.77
2024-03-12T22:24:23.865Z,52.78
2024-03-12T22:26:54.525Z,53.02
2024-03-12T22:29:22.197Z,52.91
2024-03-12T22:31:49.870Z,52.95
2024-03-12T22:34:17.420Z,52.78
2024-03-12T22:36:45.597Z,53.05
2024-03-12T22:39:14.430Z,53.04
2024-03-12T22:41:48.813Z,53.05
2024-03-12T22:44:16.797Z,52.91
2024-03-12T22:46:46.109Z,52.76
2024-03-12T22:49:13.494Z,53.13
2024-03-12T22:51:41.427Z,53.19
2024-03-12T22:54:10.009Z,53.13
2024-03-12T22:56:37.389Z,53.56
2024-03-12T22:59:05.431Z,53.11
2024-03-12T23:01:32.771Z,53.22
2024-03-12T23:04:01.338Z,53.08
2024-03-12T23:06:28.413Z,53.06
2024-03-12T23:08:55.702Z,53.23
2024-03-12T23:11:25.910Z,53.27
2024-03-12T23:13:54.276Z,52.72
2024-03-12T23:16:21.278Z,53.12
2024-03-12T23:18:49.679Z,53.25
2024-03-12T23:21:18.402Z,53.15
2024-03-12T23:23:45.849Z,53.26
2024-03-12T23:26:12.726Z,53.43
2024-03-12T23:28:39.811Z,53.34
2024-03-12T23:31:07.442Z,53.39
2024-03-12T23:33:35.219Z,53.38
2024-03-12T23:36:02.096Z,53.34
2024-03-12T23:38:29.451Z,53.29
2024-03-12T23:40:56.229Z,53.17
2024-03-12T23:43:24.694Z,53.59
2024-03-12T23:45:51.660Z,53.35
2024-03-12T23:48:18.783Z,53.34
2024-03-12T23:50:45.587Z,52.98
2024-03-12T23:53:12.697Z,53.25
2024-03-12T23:55:40.456Z,53.38
2024-03-12T23:58:07.692Z,53.01
